createdAt,value
2023-04-17T00:02:02.923Z,22.15
2023-04-17T00:04:30.636Z,23.13
2023-04-17T00:06:59.228Z,23.42
2023-04-17T00:09:26.000Z,25.30
2023-04-17T00:11:52.301Z,23.38
2023-04-17T00:14:18.668Z,25.75
2023-04-17T00:16:45.043Z,26.67
2023-04-17T00:19:11.878Z,24.38
2023-04-17T00:21:38.323Z,24.27
2023-04-17T00:24:04.771Z,27.42
2023-04-17T00:26:32.320Z,26.42
2023-04-17T00:28:58.656Z,22.52
2023-04-17T00:31:24.976Z,21.20
2023-04-17T00:33:51.342Z,21.05
2023-04-17T00:36:17.688Z,21.80
2023-04-17T00:38:44.160Z,23.75
2023-04-17T00:41:11.360Z,21.50
2023-04-17T00:43:39.366Z,23.35
2023-04-17T00:46:06.099Z,20.98
2023-04-17T00:48:33.776Z,21.90
2023-04-17T00:51:03.244Z,22.23
2023-04-17T00:53:33.912Z,23.02
2023-04-17T00:56:01.121Z,25.70
2023-04-17T00:58:27.733Z,29.55
2023-04-17T01:00:54.479Z,31.45
2023-04-17T01:03:21.768Z,32.00
2023-04-17T01:05:51.338Z,32.42
2023-04-17T01:08:18.914Z,30.65
2023-04-17T01:10:45.635Z,30.45
2023-04-17T01:13:11.993Z,28.48
2023-04-17T01:15:40.725Z,30.67
2023-04-17T01:18:07.220Z,36.05
2023-04-17T01:20:34.573Z,32.10
2023-04-17T01:23:01.186Z,31.52
2023-04-17T01:25:28.229Z,33.35
2023-04-17T01:27:56.096Z,29.73
2023-04-17T01:30:22.717Z,33.88
2023-04-17T01:33:00.806Z,29.70
2023-04-17T01:35:28.051Z,32.00
2023-04-17T01:37:55.576Z,31.15
2023-04-17T01:40:22.026Z,31.83
2023-04-17T01:42:48.418Z,32.63
2023-04-17T01:45:15.127Z,34.17
2023-04-17T01:47:41.551Z,32.47
2023-04-17T01:50:11.004Z,28.05
2023-04-17T01:52:37.320Z,28.63
2023-04-17T01:55:04.120Z,31.60
2023-04-17T01:57:32.519Z,28.80
2023-04-17T01:59:58.847Z,33.67
2023-04-17T02:02:25.356Z,31.27
2023-04-17T02:04:51.730Z,27.33
2023-04-17T02:07:18.077Z,29.88
2023-04-17T02:09:44.384Z,29.73
2023-04-17T02:12:10.815Z,31.85
2023-04-17T02:14:37.154Z,32.60
2023-04-17T02:17:03.910Z,31.40
2023-04-17T02:19:32.406Z,36.45
2023-04-17T02:22:02.306Z,34.50
2023-04-17T02:24:30.416Z,29.60
2023-04-17T02:27:00.102Z,30.33
2023-04-17T02:29:26.548Z,27.40
2023-04-17T02:31:53.346Z,26.25
2023-04-17T02:34:19.738Z,30.48
2023-04-17T02:36:47.237Z,28.92
2023-04-17T02:39:13.999Z,29.58
2023-04-17T02:41:41.166Z,28.33
2023-04-17T02:44:08.845Z,30.08
2023-04-17T02:46:35.180Z,34.25
2023-04-17T02:49:02.472Z,35.65
2023-04-17T02:51:30.861Z,34.13
2023-04-17T02:53:57.197Z,35.83
2023-04-17T02:56:23.676Z,37.40
2023-04-17T02:58:50.018Z,37.33
2023-04-17T03:01:16.469Z,32.08
2023-04-17T03:03:45.325Z,37.25
2023-04-17T03:06:14.151Z,33.72
2023-04-17T03:08:42.036Z,37.47
2023-04-17T03:11:08.348Z,35.38
2023-04-17T03:13:36.859Z,38.72
2023-04-17T03:16:06.658Z,38.30
2023-04-17T03:18:39.731Z,35.40
2023-04-17T03:21:06.611Z,39.80
2023-04-17T03:23:33.232Z,40.28
2023-04-17T03:25:59.552Z,38.38
2023-04-17T03:28:27.047Z,38.63
2023-04-17T03:30:54.804Z,36.38
2023-04-17T03:33:21.325Z,37.13
2023-04-17T03:35:47.885Z,34.50
2023-04-17T03:38:15.225Z,35.42
2023-04-17T03:40:41.841Z,35.72
2023-04-17T03:43:09.591Z,68.25
2023-04-17T03:45:36.267Z,60.00
2023-04-17T03:48:03.475Z,48.15
2023-04-17T03:50:31.118Z,38.00
2023-04-17T03:52:57.530Z,42.55
2023-04-17T03:55:26.304Z,40.60
2023-04-17T03:57:53.193Z,41.97
2023-04-17T04:00:21.705Z,40.78
2023-04-17T04:02:52.224Z,39.65
2023-04-17T04:05:23.509Z,38.25
2023-04-17T04:07:49.909Z,38.00
2023-04-17T04:10:23.870Z,36.65
2023-04-17T04:12:50.330Z,37.92
2023-04-17T04:15:17.202Z,38.05
2023-04-17T04:17:46.034Z,37.30
2023-04-17T04:20:12.635Z,36.78
2023-04-17T04:22:41.465Z,36.15
2023-04-17T04:25:08.279Z,52.50
2023-04-17T04:27:49.672Z,39.63
2023-04-17T04:30:21.561Z,39.00
2023-04-17T04:32:51.280Z,40.03
2023-04-17T04:35:17.716Z,36.08
2023-04-17T04:37:46.268Z,35.67
2023-04-17T04:40:16.228Z,40.38
2023-04-17T04:42:42.700Z,41.90
2023-04-17T04:45:16.252Z,35.42
2023-04-17T04:47:44.155Z,40.65
2023-04-17T04:50:10.854Z,42.42
2023-04-17T04:52:37.249Z,38.38
2023-04-17T04:55:14.833Z,38.50
2023-04-17T04:57:46.877Z,36.40
2023-04-17T05:00:14.470Z,40.40
2023-04-17T05:02:46.010Z,38.45
2023-04-17T05:05:13.975Z,43.47
2023-04-17T05:07:41.278Z,39.70
2023-04-17T05:10:10.774Z,43.95
2023-04-17T05:12:44.219Z,41.15
2023-04-17T05:15:12.092Z,40.33
2023-04-17T05:17:39.051Z,45.88
2023-04-17T05:20:09.560Z,40.55
2023-04-17T05:22:44.147Z,43.83
2023-04-17T05:25:12.418Z,42.28
2023-04-17T05:27:38.751Z,42.90
2023-04-17T05:30:06.325Z,42.90
2023-04-17T05:32:34.814Z,46.38
2023-04-17T05:35:12.111Z,44.55
2023-04-17T05:37:39.830Z,41.35
2023-04-17T05:40:07.047Z,48.35
2023-04-17T05:42:34.476Z,40.90
2023-04-17T05:45:01.188Z,42.05
2023-04-17T05:47:27.614Z,42.42
2023-04-17T05:49:57.414Z,38.78
2023-04-17T05:52:27.153Z,45.58
2023-04-17T05:54:53.572Z,44.72
2023-04-17T05:57:20.804Z,46.35
2023-04-17T05:59:49.089Z,46.47
2023-04-17T06:02:16.530Z,43.65
2023-04-17T06:04:46.597Z,43.25
2023-04-17T06:07:13.274Z,44.83
2023-04-17T06:09:40.745Z,44.08
2023-04-17T06:12:07.411Z,44.15
2023-04-17T06:14:34.430Z,42.92
2023-04-17T06:17:05.002Z,49.33
2023-04-17T06:19:31.476Z,49.30
2023-04-17T06:21:57.959Z,52.42
2023-04-17T06:24:25.740Z,44.55
2023-04-17T06:26:52.084Z,44.60
2023-04-17T06:29:18.600Z,43.90
2023-04-17T06:31:44.955Z,39.08
2023-04-17T06:34:12.101Z,45.50
2023-04-17T06:36:41.928Z,48.47
2023-04-17T06:39:08.366Z,39.78
2023-04-17T06:41:34.819Z,47.97
2023-04-17T06:44:01.171Z,47.65
2023-04-17T06:46:43.145Z,42.38
2023-04-17T06:49:09.980Z,43.42
2023-04-17T06:51:36.696Z,44.55
2023-04-17T06:54:03.001Z,42.38
2023-04-17T06:56:29.322Z,41.00
2023-04-17T06:58:57.710Z,42.35
2023-04-17T07:01:24.045Z,40.50
2023-04-17T07:03:50.677Z,39.88
2023-04-17T07:06:17.191Z,40.28
2023-04-17T07:08:43.662Z,43.28
2023-04-17T07:11:10.072Z,38.33
2023-04-17T07:13:36.651Z,43.63
2023-04-17T07:16:03.657Z,42.42
2023-04-17T07:18:30.120Z,39.00
2023-04-17T07:20:56.646Z,39.22
2023-04-17T07:23:23.533Z,38.13
2023-04-17T07:25:50.088Z,39.50
2023-04-17T07:28:16.619Z,42.72
2023-04-17T07:30:42.943Z,36.72
2023-04-17T07:33:09.946Z,42.58
2023-04-17T07:35:36.356Z,38.88
2023-04-17T07:38:04.382Z,39.28
2023-04-17T07:40:31.480Z,42.53
2023-04-17T07:42:57.779Z,36.70
2023-04-17T07:45:24.129Z,41.17
2023-04-17T07:47:53.368Z,43.80
2023-04-17T07:50:19.916Z,34.95
2023-04-17T07:52:46.824Z,37.90
2023-04-17T07:55:13.292Z,34.35
2023-04-17T07:57:43.126Z,35.92
2023-04-17T08:00:16.227Z,38.35
2023-04-17T08:02:43.729Z,32.92
2023-04-17T08:05:10.508Z,36.05
2023-04-17T08:07:37.407Z,30.70
2023-04-17T08:10:04.964Z,32.83
2023-04-17T08:12:31.298Z,29.67
2023-04-17T08:14:57.669Z,33.67
2023-04-17T08:17:25.925Z,34.95
2023-04-17T08:19:57.354Z,31.42
2023-04-17T08:22:25.316Z,37.10
2023-04-17T08:24:57.280Z,30.77
2023-04-17T08:27:25.260Z,28.95
2023-04-17T08:29:53.460Z,27.98
2023-04-17T08:32:21.189Z,28.85
2023-04-17T08:34:47.933Z,35.72
2023-04-17T08:37:14.268Z,27.20
2023-04-17T08:39:40.809Z,29.42
2023-04-17T08:42:12.098Z,32.67
2023-04-17T08:44:42.981Z,26.20
2023-04-17T08:47:09.404Z,28.17
2023-04-17T08:49:36.189Z,31.10
2023-04-17T08:52:04.410Z,26.73
2023-04-17T08:54:35.505Z,29.17
2023-04-17T08:57:03.771Z,27.63
2023-04-17T08:59:31.164Z,27.65
2023-04-17T09:02:08.125Z,26.60
2023-04-17T09:04:43.206Z,25.92
2023-04-17T09:07:11.645Z,28.80
2023-04-17T09:09:49.406Z,29.85
2023-04-17T09:12:16.093Z,28.25
2023-04-17T09:14:42.461Z,23.02
2023-04-17T09:17:08.882Z,23.92
2023-04-17T09:19:35.477Z,20.20
2023-04-17T09:22:18.829Z,24.77
2023-04-17T09:24:45.400Z,21.17
2023-04-17T09:27:25.163Z,30.80
2023-04-17T09:30:05.847Z,21.25
2023-04-17T09:32:33.784Z,18.40
2023-04-17T09:35:02.345Z,19.25
2023-04-17T09:37:51.380Z,18.15
2023-04-17T09:40:22.815Z,18.95
2023-04-17T09:42:58.936Z,24.77
2023-04-17T09:45:26.465Z,21.52
2023-04-17T09:47:55.776Z,27.38
2023-04-17T09:50:24.832Z,22.42
2023-04-17T09:52:52.530Z,19.38
2023-04-17T09:55:23.575Z,17.25
2023-04-17T09:57:51.385Z,19.67
2023-04-17T10:00:20.058Z,20.95
2023-04-17T10:02:49.393Z,19.38
2023-04-17T10:05:16.836Z,21.05
2023-04-17T10:07:43.269Z,19.50
2023-04-17T10:14:37.442Z,15.15
2023-04-17T10:17:24.076Z,14.30
2023-04-17T10:19:50.592Z,16.48
2023-04-17T10:22:19.870Z,17.20
2023-04-17T10:24:51.925Z,15.98
2023-04-17T10:27:24.282Z,13.15
2023-04-17T10:29:54.197Z,13.30
2023-04-17T10:32:21.686Z,16.23
2023-04-17T10:34:48.190Z,15.10
2023-04-17T10:37:17.159Z,14.57
2023-04-17T10:40:02.168Z,17.13
2023-04-17T10:42:30.114Z,14.07
2023-04-17T10:45:01.678Z,13.57
2023-04-17T10:47:35.595Z,15.43
2023-04-17T10:50:04.338Z,11.95
2023-04-17T10:52:34.506Z,14.40
2023-04-17T10:55:21.863Z,13.35
2023-04-17T10:58:12.852Z,11.85
2023-04-17T11:00:50.743Z,12.68
2023-04-17T11:03:17.568Z,16.02
2023-04-17T11:05:45.889Z,16.02
2023-04-17T11:08:12.964Z,12.20
2023-04-17T11:10:39.358Z,14.73
2023-04-17T11:13:06.235Z,13.85
2023-04-17T11:15:34.918Z,13.70
2023-04-17T11:18:02.526Z,9.40
2023-04-17T11:20:31.044Z,11.10
2023-04-17T11:23:05.001Z,13.27
2023-04-17T11:25:33.855Z,9.57
2023-04-17T11:28:11.375Z,8.48
2023-04-17T11:30:44.237Z,12.68
2023-04-17T11:33:15.849Z,14.77
2023-04-17T11:35:44.928Z,9.75
2023-04-17T11:38:23.210Z,13.38
2023-04-17T11:40:51.131Z,9.70
2023-04-17T11:43:18.848Z,10.52
2023-04-17T11:45:46.828Z,9.52
2023-04-17T11:48:14.792Z,8.55
2023-04-17T11:50:43.525Z,9.48
2023-04-17T11:53:14.442Z,6.70
2023-04-17T11:55:41.136Z,10.68
2023-04-17T11:58:09.587Z,7.68
2023-04-17T12:00:37.515Z,9.52
2023-04-17T12:03:36.347Z,7.93
2023-04-17T12:06:04.770Z,11.95
2023-04-17T12:08:31.365Z,9.88
2023-04-17T12:10:58.596Z,7.10
2023-04-17T12:13:25.596Z,4.72
2023-04-17T12:15:52.114Z,7.93
2023-04-17T12:18:18.455Z,5.65
2023-04-17T12:20:44.806Z,6.35
2023-04-17T12:23:11.107Z,10.60
2023-04-17T12:25:37.455Z,6.72
2023-04-17T12:28:04.908Z,6.07
2023-04-17T12:30:31.887Z,5.38
2023-04-17T12:32:58.420Z,6.85
2023-04-17T12:35:24.823Z,9.43
2023-04-17T12:37:51.401Z,7.32
2023-04-17T12:40:20.477Z,6.88
2023-04-17T12:42:49.745Z,11.45
2023-04-17T12:45:16.876Z,6.90
2023-04-17T12:47:43.723Z,8.85
2023-04-17T12:50:11.679Z,8.00
2023-04-17T12:52:39.336Z,11.55
2023-04-17T12:55:07.555Z,8.10
2023-04-17T12:57:35.624Z,10.43
2023-04-17T13:00:05.430Z,7.80
2023-04-17T13:02:32.147Z,8.07
2023-04-17T13:04:58.592Z,9.40
2023-04-17T13:07:25.404Z,10.32
2023-04-17T13:09:51.797Z,10.05
2023-04-17T13:12:18.133Z,8.23
2023-04-17T13:14:44.467Z,9.45
2023-04-17T13:17:10.794Z,12.55
2023-04-17T13:19:37.927Z,9.13
2023-04-17T13:22:04.270Z,7.28
2023-04-17T13:24:31.055Z,7.75
2023-04-17T13:26:58.088Z,7.35
2023-04-17T13:29:25.017Z,10.55
2023-04-17T13:31:51.690Z,9.35
2023-04-17T13:34:18.544Z,7.13
2023-04-17T13:36:45.599Z,16.42
2023-04-17T13:39:12.550Z,10.38
2023-04-17T13:41:40.411Z,11.60
2023-04-17T13:44:06.757Z,10.57
2023-04-17T13:46:34.165Z,9.25
2023-04-17T13:49:00.624Z,7.07
2023-04-17T13:51:27.271Z,6.53
2023-04-17T13:53:53.847Z,9.30
2023-04-17T13:56:23.233Z,7.75
2023-04-17T13:58:50.339Z,5.88
2023-04-17T14:01:17.259Z,6.85
2023-04-17T14:03:45.980Z,8.63
2023-04-17T14:06:12.833Z,7.57
2023-04-17T14:08:39.316Z,6.95
2023-04-17T14:11:05.888Z,6.57
2023-04-17T14:13:32.207Z,7.53
2023-04-17T14:15:58.545Z,6.47
2023-04-17T14:18:24.912Z,7.63
2023-04-17T14:20:53.306Z,6.13
2023-04-17T14:23:19.737Z,8.02
2023-04-17T14:25:46.158Z,9.05
2023-04-17T14:28:12.591Z,7.45
2023-04-17T14:30:39.024Z,9.73
2023-04-17T14:33:05.378Z,8.88
2023-04-17T14:35:33.195Z,10.15
2023-04-17T14:37:59.564Z,12.20
2023-04-17T14:40:25.942Z,10.38
2023-04-17T14:42:54.556Z,8.32
2023-04-17T14:45:21.513Z,8.32
2023-04-17T14:47:47.895Z,9.82
2023-04-17T14:50:14.304Z,10.88
2023-04-17T14:52:40.828Z,12.77
2023-04-17T14:55:07.686Z,10.60
2023-04-17T14:57:34.010Z,11.50
2023-04-17T15:00:00.799Z,9.88
2023-04-17T15:02:27.118Z,7.43
2023-04-17T15:04:54.685Z,8.73
2023-04-17T15:07:21.021Z,5.90
2023-04-17T15:09:47.420Z,6.70
2023-04-17T15:12:13.775Z,10.13
2023-04-17T15:14:40.134Z,9.30
2023-04-17T15:17:06.865Z,11.45
2023-04-17T15:19:33.670Z,7.80
2023-04-17T15:22:00.122Z,7.78
2023-04-17T15:24:26.423Z,7.28
2023-04-17T15:26:52.742Z,8.35
2023-04-17T15:29:19.078Z,6.18
2023-04-17T15:31:45.437Z,7.05
2023-04-17T15:34:13.424Z,8.18
2023-04-17T15:36:39.902Z,9.85
2023-04-17T15:39:06.176Z,6.97
2023-04-17T15:41:32.490Z,7.32
2023-04-17T15:43:58.804Z,10.65
2023-04-17T15:46:25.263Z,18.40
2023-04-17T15:49:04.872Z,48.22
2023-04-17T15:51:34.379Z,14.70
2023-04-17T15:54:00.752Z,9.50
2023-04-17T15:56:27.092Z,11.43
2023-04-17T15:58:53.376Z,9.43
2023-04-17T16:01:19.813Z,15.05
2023-04-17T16:03:46.469Z,14.75
2023-04-17T16:06:12.946Z,13.02
2023-04-17T16:08:39.452Z,10.13
2023-04-17T16:11:05.790Z,9.68
2023-04-17T16:13:32.088Z,11.88
2023-04-17T16:15:58.425Z,10.60
2023-04-17T16:18:24.804Z,14.93
2023-04-17T16:20:51.148Z,9.30
2023-04-17T16:23:17.878Z,10.73
2023-04-17T16:25:44.215Z,11.80
2023-04-17T16:28:10.592Z,11.00
2023-04-17T16:30:36.911Z,10.27
2023-04-17T16:33:03.936Z,9.07
2023-04-17T16:35:30.390Z,10.23
2023-04-17T16:37:56.718Z,14.02
2023-04-17T16:40:23.037Z,8.70
2023-04-17T16:42:49.343Z,10.82
2023-04-17T16:45:15.658Z,9.27
2023-04-17T16:47:42.157Z,14.73
2023-04-17T16:50:11.674Z,14.20
2023-04-17T16:52:39.140Z,10.18
2023-04-17T16:55:06.131Z,17.42
2023-04-17T16:57:32.495Z,13.52
2023-04-17T16:59:58.763Z,15.90
2023-04-17T17:02:25.409Z,10.82
2023-04-17T17:04:51.872Z,13.07
2023-04-17T17:07:18.202Z,14.77
2023-04-17T17:09:44.489Z,20.92
2023-04-17T17:12:11.128Z,10.98
2023-04-17T17:14:37.406Z,11.18
2023-04-17T17:17:03.721Z,9.88
2023-04-17T17:19:30.014Z,10.32
2023-04-17T17:21:56.313Z,13.43
2023-04-17T17:24:22.645Z,13.35
2023-04-17T17:26:48.948Z,10.77
2023-04-17T17:29:15.460Z,16.25
2023-04-17T17:31:41.887Z,20.75
2023-04-17T17:34:24.555Z,25.77
2023-04-17T17:36:52.799Z,36.15
2023-04-17T17:39:20.981Z,51.65
2023-04-17T17:41:48.045Z,35.38
2023-04-17T17:44:14.775Z,43.17
2023-04-17T17:46:41.349Z,33.78
2023-04-17T17:49:07.683Z,24.63
2023-04-17T17:51:34.031Z,28.77
2023-04-17T17:54:00.347Z,21.30
2023-04-17T17:56:26.716Z,19.85
2023-04-17T17:58:53.080Z,24.73
2023-04-17T18:01:19.509Z,25.95
2023-04-17T18:03:49.423Z,40.90
2023-04-17T18:06:16.074Z,30.87
2023-04-17T18:08:42.516Z,31.38
2023-04-17T18:11:08.888Z,26.48
2023-04-17T18:13:35.197Z,24.33
2023-04-17T18:16:04.854Z,38.00
2023-04-17T18:18:31.391Z,29.17
2023-04-17T18:20:57.820Z,29.63
2023-04-17T18:23:24.149Z,18.60
2023-04-17T18:25:58.582Z,18.88
2023-04-17T18:28:25.780Z,26.48
2023-04-17T18:30:52.162Z,20.67
2023-04-17T18:33:18.647Z,16.38
2023-04-17T18:35:45.032Z,14.35
2023-04-17T18:38:11.900Z,19.67
2023-04-17T18:40:38.183Z,23.35
2023-04-17T18:43:06.001Z,33.03
2023-04-17T18:45:32.512Z,27.10
2023-04-17T18:47:59.007Z,26.42
2023-04-17T18:50:26.768Z,19.77
2023-04-17T18:52:53.254Z,25.67
2023-04-17T18:55:19.635Z,22.38
2023-04-17T18:57:46.040Z,36.10
2023-04-17T19:00:12.766Z,52.47
2023-04-17T19:02:40.465Z,103.90
2023-04-17T19:05:07.416Z,70.50
2023-04-17T19:07:33.751Z,60.95
2023-04-17T19:10:00.272Z,50.00
2023-04-17T19:12:26.594Z,49.15
2023-04-17T19:14:53.051Z,62.08
2023-04-17T19:17:19.375Z,65.60
2023-04-17T19:19:45.749Z,58.83
2023-04-17T19:22:13.228Z,60.40
2023-04-17T19:24:40.987Z,25.58
2023-04-17T19:27:07.266Z,19.80
2023-04-17T19:29:33.599Z,105.82
2023-04-17T19:32:00.181Z,63.25
2023-04-17T19:34:26.808Z,47.60
2023-04-17T19:36:53.098Z,22.92
2023-04-17T19:39:19.448Z,25.40
2023-04-17T19:41:50.642Z,16.27
2023-04-17T19:44:17.424Z,27.90
2023-04-17T19:46:43.764Z,20.67
2023-04-17T19:49:11.805Z,22.48
2023-04-17T19:51:38.752Z,31.92
2023-04-17T19:54:05.073Z,30.33
2023-04-17T19:56:31.379Z,31.67
2023-04-17T19:59:00.912Z,17.42
2023-04-17T20:01:27.477Z,22.08
2023-04-17T20:03:53.872Z,28.92
2023-04-17T20:06:20.312Z,24.05
2023-04-17T20:08:46.627Z,20.88
2023-04-17T20:11:15.716Z,31.08
2023-04-17T20:13:42.429Z,33.35
2023-04-17T20:16:08.845Z,32.47
2023-04-17T20:18:36.896Z,39.50
2023-04-17T20:21:06.199Z,30.17
2023-04-17T20:23:32.779Z,36.15
2023-04-17T20:25:59.210Z,34.63
2023-04-17T20:28:28.544Z,22.40
2023-04-17T20:30:55.134Z,28.60
2023-04-17T20:33:21.526Z,20.77
2023-04-17T20:35:47.892Z,31.58
2023-04-17T20:38:14.242Z,29.23
2023-04-17T20:40:40.750Z,22.48
2023-04-17T20:43:07.263Z,25.33
2023-04-17T20:45:33.630Z,23.30
2023-04-17T20:47:59.968Z,22.38
2023-04-17T20:50:26.333Z,33.67
2023-04-17T20:52:52.712Z,29.88
2023-04-17T20:55:19.829Z,69.13
2023-04-17T20:57:46.507Z,78.57
2023-04-17T21:00:13.132Z,52.53
2023-04-17T21:02:39.713Z,51.83
2023-04-17T21:05:07.293Z,53.63
2023-04-17T21:07:33.710Z,43.33
2023-04-17T21:10:00.032Z,39.67
2023-04-17T21:12:26.365Z,35.75
2023-04-17T21:14:52.792Z,21.20
2023-04-17T21:17:19.677Z,19.90
2023-04-17T21:19:46.062Z,35.80
2023-04-17T21:22:12.974Z,93.07
2023-04-17T21:24:39.571Z,108.20
2023-04-17T21:27:06.164Z,75.38
2023-04-17T21:29:32.672Z,41.40
2023-04-17T21:31:59.487Z,30.52
2023-04-17T21:34:26.057Z,23.08
2023-04-17T21:36:54.055Z,19.55
2023-04-17T21:39:21.520Z,36.72
2023-04-17T21:41:47.980Z,67.65
2023-04-17T21:44:14.960Z,56.97
2023-04-17T21:46:44.360Z,37.95
2023-04-17T21:49:10.717Z,24.20
2023-04-17T21:51:37.045Z,27.80
2023-04-17T21:54:04.063Z,24.80
2023-04-17T21:56:31.700Z,28.17
2023-04-17T21:58:58.091Z,49.72
2023-04-17T22:01:24.474Z,33.03
2023-04-17T22:03:50.919Z,33.60
2023-04-17T22:06:17.298Z,22.83
2023-04-17T22:08:43.680Z,23.80
2023-04-17T22:11:10.140Z,20.35
2023-04-17T22:13:36.565Z,28.75
2023-04-17T22:16:03.572Z,21.50
2023-04-17T22:18:30.001Z,19.50
2023-04-17T22:20:56.304Z,18.23
2023-04-17T22:23:22.639Z,20.55
2023-04-17T22:25:48.967Z,16.25
2023-04-17T22:28:15.564Z,23.90
2023-04-17T22:30:41.936Z,17.98
2023-04-17T22:33:08.449Z,14.55
2023-04-17T22:35:34.844Z,15.40
2023-04-17T22:38:01.157Z,15.98
2023-04-17T22:40:27.563Z,25.92
2023-04-17T22:42:53.887Z,15.02
2023-04-17T22:45:20.272Z,18.80
2023-04-17T22:47:46.613Z,23.17
2023-04-17T22:50:14.096Z,17.02
2023-04-17T22:52:40.745Z,16.60
2023-04-17T22:55:07.363Z,17.23
2023-04-17T22:57:33.670Z,16.67
2023-04-17T22:59:59.997Z,16.60
2023-04-17T23:02:26.347Z,20.17
2023-04-17T23:04:52.989Z,13.80
2023-04-17T23:07:19.300Z,19.38
2023-04-17T23:09:46.351Z,17.63
2023-04-17T23:12:12.712Z,20.65
2023-04-17T23:14:39.029Z,17.00
2023-04-17T23:17:06.419Z,16.27
2023-04-17T23:19:32.881Z,14.07
2023-04-17T23:22:00.933Z,16.30
2023-04-17T23:24:27.444Z,18.13
2023-04-17T23:26:54.991Z,20.15
2023-04-17T23:29:21.360Z,20.40
2023-04-17T23:31:47.924Z,13.68
2023-04-17T23:34:14.595Z,15.02
2023-04-17T23:36:41.072Z,14.80
2023-04-17T23:39:07.401Z,20.83
2023-04-17T23:41:34.814Z,16.88
2023-04-17T23:44:01.575Z,14.38
2023-04-17T23:46:27.963Z,23.08
2023-04-17T23:48:54.360Z,14.75
2023-04-17T23:51:20.850Z,15.07
2023-04-17T23:53:47.266Z,19.10
2023-04-17T23:56:13.660Z,14.63
2023-04-17T23:58:40.028Z,14.10
